Time;durP1;ratioP1;P1;durP2;ratioP2;P2;SDS_P1;SDS_P2;PMS_P1;PMS_P2;Temp;Humidity;BMP_temperature;BMP_pressure;BME280_temperature;BME280_humidity;BME280_pressure;Samples;Min_cycle;Max_cycle;Signal;HPM_P1;HPM_P2
2022/07/17 00:00:24;;;;;;;3.40;3.10;;;;;;;24.60;56.09;98408.47;4984607;28;20175;-70
2022/07/17 00:02:49;;;;;;;3.63;3.42;;;;;;;24.62;55.99;98411.72;4979171;28;20210;-70
2022/07/17 00:05:15;;;;;;;3.95;3.65;;;;;;;24.54;56.28;98411.84;4981943;28;20179;-70
2022/07/17 00:07:40;;;;;;;5.47;3.28;;;;;;;24.46;56.70;98406.72;5001180;28;20573;-69
2022/07/17 00:10:06;;;;;;;3.97;3.60;;;;;;;24.40;56.88;98417.25;5000314;28;20191;-70
2022/07/17 00:12:32;;;;;;;4.57;3.30;;;;;;;24.41;56.70;98414.41;4995878;28;20695;-71
2022/07/17 00:14:57;;;;;;;4.00;3.13;;;;;;;24.31;56.81;98394.59;5005288;28;20182;-70
2022/07/17 00:17:23;;;;;;;4.18;3.88;;;;;;;24.47;56.78;98418.94;4992673;28;20183;-70
2022/07/17 00:19:49;;;;;;;3.70;3.40;;;;;;;24.36;56.91;98406.22;4996627;28;20188;-69
2022/07/17 00:22:14;;;;;;;5.78;4.00;;;;;;;24.44;57.01;98414.00;4978293;28;20186;-69
2022/07/17 00:24:40;;;;;;;4.10;3.50;;;;;;;24.36;57.09;98408.88;4979134;28;20194;-71
2022/07/17 00:27:05;;;;;;;5.70;3.30;;;;;;;24.34;57.16;98415.38;5003549;28;20578;-69
2022/07/17 00:29:30;;;;;;;3.78;3.53;;;;;;;24.28;57.41;98410.84;4996186;28;21158;-71
2022/07/17 00:31:56;;;;;;;4.00;3.70;;;;;;;24.17;57.92;98417.47;4990547;28;20179;-71
2022/07/17 00:34:21;;;;;;;3.47;3.25;;;;;;;24.13;58.19;98408.28;5002076;28;20190;-70
2022/07/17 00:36:47;;;;;;;3.88;3.50;;;;;;;24.13;58.09;98413.56;5000498;28;20183;-70
2022/07/17 00:39:12;;;;;;;4.32;3.92;;;;;;;24.14;58.15;98415.19;4994322;28;20187;-70
2022/07/17 00:41:38;;;;;;;3.88;3.67;;;;;;;24.12;58.70;98415.59;4990586;28;20218;-71
2022/07/17 00:44:13;;;;;;;3.63;3.33;;;;;;;24.08;58.74;98414.31;4977774;28;20488;-70
2022/07/17 00:46:40;;;;;;;5.00;4.07;;;;;;;24.02;58.84;98420.38;4998943;28;20174;-70
2022/07/17 00:49:06;;;;;;;3.80;3.45;;;;;;;23.94;59.26;98428.44;4996999;28;20211;-70
2022/07/17 00:51:32;;;;;;;4.32;3.40;;;;;;;23.91;59.55;98426.16;4991533;28;20233;-70
2022/07/17 00:53:59;;;;;;;5.18;3.45;;;;;;;23.84;59.87;98428.69;4998481;28;20198;-70
2022/07/17 00:56:27;;;;;;;4.30;3.20;;;;;;;23.79;59.77;98425.81;4997339;28;20897;-70
2022/07/17 00:58:53;;;;;;;3.33;3.13;;;;;;;23.78;59.75;98427.63;4998366;28;20178;-70
2022/07/17 01:01:18;;;;;;;4.03;3.65;;;;;;;23.74;59.70;98423.69;5001147;28;20565;-70
2022/07/17 01:03:44;;;;;;;3.58;3.38;;;;;;;23.78;59.67;98429.44;4983041;28;20186;-70
2022/07/17 01:06:10;;;;;;;4.30;3.90;;;;;;;23.78;59.52;98435.56;4978348;28;20206;-69
2022/07/17 01:08:36;;;;;;;4.05;3.75;;;;;;;23.79;59.40;98423.16;4983851;28;20215;-70
2022/07/17 01:11:02;;;;;;;3.85;3.55;;;;;;;23.77;59.41;98418.06;4997816;28;20664;-70
2022/07/17 01:13:29;;;;;;;3.33;2.97;;;;;;;23.77;59.68;98421.72;5001590;28;20249;-69
2022/07/17 01:15:54;;;;;;;3.30;3.10;;;;;;;23.86;58.73;98424.03;5003263;28;20665;-70
2022/07/17 01:18:20;;;;;;;4.47;3.40;;;;;;;23.93;58.51;98419.66;5000993;28;20221;-70
2022/07/17 01:20:48;;;;;;;3.65;3.35;;;;;;;23.88;58.70;98413.31;5006229;28;20186;-70
2022/07/17 01:23:15;;;;;;;3.83;3.53;;;;;;;23.90;58.83;98419.22;4988409;28;20183;-70
2022/07/17 01:25:41;;;;;;;5.05;3.28;;;;;;;23.90;58.89;98427.97;4974447;28;20305;-71
2022/07/17 01:28:08;;;;;;;4.25;3.85;;;;;;;23.86;59.06;98426.69;4996177;28;20216;-70
2022/07/17 01:30:34;;;;;;;4.10;3.85;;;;;;;23.80;59.63;98438.81;4995348;28;20738;-71
2022/07/17 01:33:00;;;;;;;4.55;3.55;;;;;;;23.77;59.90;98448.13;5001107;28;20234;-69
2022/07/17 01:35:27;;;;;;;4.30;3.90;;;;;;;23.69;60.50;98441.13;4998857;28;20582;-70
2022/07/17 01:37:52;;;;;;;3.92;3.63;;;;;;;23.63;60.60;98436.59;4991380;28;20678;-70
2022/07/17 01:40:18;;;;;;;4.65;3.90;;;;;;;23.63;60.59;98451.63;4997542;28;20182;-70
2022/07/17 01:42:49;;;;;;;4.55;3.60;;;;;;;23.55;61.08;98444.63;4999508;28;20572;-69
2022/07/17 01:45:17;;;;;;;4.30;4.00;;;;;;;23.50;61.21;98441.75;5010837;28;20290;-70
2022/07/17 01:47:43;;;;;;;3.97;3.67;;;;;;;23.42;61.86;98439.19;4996469;28;20182;-70
2022/07/17 01:50:10;;;;;;;4.00;3.60;;;;;;;23.50;61.53;98446.19;4998117;28;20181;-69
2022/07/17 01:52:38;;;;;;;4.28;3.88;;;;;;;23.45;61.52;98464.41;5004541;28;20211;-70
2022/07/17 01:55:09;;;;;;;3.78;3.58;;;;;;;23.46;61.52;98455.47;5004151;28;20186;-70
2022/07/17 01:57:36;;;;;;;3.55;3.25;;;;;;;23.40;61.40;98456.22;4991086;28;20183;-70
2022/07/17 02:00:05;;;;;;;3.47;3.13;;;;;;;23.38;61.82;98458.22;5004775;28;20217;-70
2022/07/17 02:02:31;;;;;;;3.92;3.60;;;;;;;23.30;62.05;98453.06;5014105;28;20217;-70
2022/07/17 02:04:56;;;;;;;3.90;3.70;;;;;;;23.25;61.99;98453.59;4998764;28;20229;-71
2022/07/17 02:07:22;;;;;;;7.53;3.70;;;;;;;23.24;62.32;98456.44;4995050;28;20193;-70
2022/07/17 02:09:47;;;;;;;4.95;3.70;;;;;;;23.14;62.43;98443.44;4995531;28;20742;-70
2022/07/17 02:12:13;;;;;;;4.18;3.83;;;;;;;23.22;62.53;98453.97;4998011;28;20269;-71
2022/07/17 02:14:38;;;;;;;5.07;3.50;;;;;;;23.18;62.57;98452.69;4990428;28;20195;-70
2022/07/17 02:17:03;;;;;;;4.07;3.75;;;;;;;23.24;62.80;98457.25;4995690;28;20187;-70
2022/07/17 02:19:29;;;;;;;4.18;3.88;;;;;;;23.13;63.02;98454.22;4997550;28;20268;-72
2022/07/17 02:21:55;;;;;;;4.75;3.60;;;;;;;23.14;62.86;98450.56;5002328;28;20191;-70
2022/07/17 02:24:20;;;;;;;3.50;3.20;;;;;;;23.14;62.60;98446.09;4993234;28;20285;-70
2022/07/17 02:26:46;;;;;;;3.65;3.38;;;;;;;23.11;62.66;98449.13;4993018;28;20659;-68
2022/07/17 02:29:11;;;;;;;4.00;3.80;;;;;;;23.08;62.39;98451.31;4995428;28;20190;-70
2022/07/17 02:31:37;;;;;;;4.13;3.88;;;;;;;23.09;62.65;98453.78;4995690;28;20190;-70
2022/07/17 02:34:02;;;;;;;3.90;3.50;;;;;;;23.05;62.69;98446.38;5000105;28;20566;-70
2022/07/17 02:36:28;;;;;;;4.45;3.90;;;;;;;23.10;62.82;98450.13;5005463;28;20194;-70
2022/07/17 02:38:54;;;;;;;3.42;3.13;;;;;;;23.10;63.13;98455.41;4991283;28;20236;-69
2022/07/17 02:41:19;;;;;;;4.15;3.80;;;;;;;23.08;62.80;98448.66;4990720;28;20187;-71
2022/07/17 02:43:45;;;;;;;5.80;3.78;;;;;;;23.12;62.89;98468.41;4995019;28;20269;-70
2022/07/17 02:46:13;;;;;;;4.05;3.70;;;;;;;23.17;62.85;98471.34;4996492;28;20359;-70
2022/07/17 02:48:39;;;;;;;5.75;3.53;;;;;;;23.06;62.75;98453.28;4985940;28;20198;-70
2022/07/17 02:51:06;;;;;;;4.47;3.80;;;;;;;23.03;62.98;98454.50;4994194;28;20409;-69
2022/07/17 02:53:31;;;;;;;4.85;3.95;;;;;;;23.17;62.73;98468.69;4998426;28;20202;-70
2022/07/17 02:55:57;;;;;;;4.03;3.70;;;;;;;23.16;62.65;98470.50;4990480;28;20283;-70
2022/07/17 02:58:22;;;;;;;4.00;3.70;;;;;;;22.98;63.28;98463.94;4995256;28;20737;-70
2022/07/17 03:00:48;;;;;;;3.88;3.63;;;;;;;22.86;64.07;98449.56;5000796;28;20189;-70
2022/07/17 03:03:13;;;;;;;3.83;3.63;;;;;;;22.77;64.64;98461.19;5001549;28;20564;-70
2022/07/17 03:05:39;;;;;;;3.97;3.75;;;;;;;22.85;64.72;98461.91;5005147;28;20190;-69
2022/07/17 03:08:04;;;;;;;3.63;3.42;;;;;;;22.87;64.68;98464.38;4995448;28;20179;-69
2022/07/17 03:10:30;;;;;;;4.00;3.70;;;;;;;22.73;64.55;98455.44;4980560;28;20245;-71
2022/07/17 03:12:56;;;;;;;4.13;3.88;;;;;;;22.78;64.91;98466.28;4980343;28;20198;-70
2022/07/17 03:15:21;;;;;;;4.93;4.00;;;;;;;22.77;64.99;98477.00;4986768;28;20191;-70
2022/07/17 03:17:47;;;;;;;8.70;3.75;;;;;;;22.81;64.86;98471.22;5001437;28;20187;-70
2022/07/17 03:20:12;;;;;;;3.65;3.35;;;;;;;22.84;64.87;98470.84;4999381;28;20186;-70
2022/07/17 03:22:38;;;;;;;4.50;4.10;;;;;;;22.89;64.38;98483.53;4997775;28;20175;-70
2022/07/17 03:25:03;;;;;;;4.15;3.78;;;;;;;22.78;64.44;98465.50;4997804;28;20253;-70
2022/07/17 03:27:29;;;;;;;4.30;4.00;;;;;;;22.82;64.65;98482.56;4998633;28;20209;-70
2022/07/17 03:29:54;;;;;;;4.63;3.35;;;;;;;22.71;65.13;98481.22;4988437;28;20193;-70
2022/07/17 03:32:20;;;;;;;4.15;3.92;;;;;;;22.77;65.40;98483.13;4978983;28;20203;-70
2022/07/17 03:34:46;;;;;;;3.72;3.42;;;;;;;22.85;65.10;98483.03;5015042;28;20666;-70
2022/07/17 03:37:12;;;;;;;4.45;3.60;;;;;;;22.94;64.53;98487.25;5000227;28;20206;-70
2022/07/17 03:39:37;;;;;;;5.88;3.80;;;;;;;22.94;64.26;98489.06;4994375;28;20196;-70
2022/07/17 03:42:03;;;;;;;4.32;3.92;;;;;;;22.86;64.80;98486.50;4997905;28;20222;-70
2022/07/17 03:44:29;;;;;;;4.30;4.00;;;;;;;22.88;64.97;98493.25;5004035;28;20216;-70
2022/07/17 03:46:54;;;;;;;3.88;3.58;;;;;;;22.80;65.05;98469.59;4999247;28;20719;-70
2022/07/17 03:49:19;;;;;;;5.15;4.00;;;;;;;23.01;64.93;98485.50;4999331;28;20709;-70
2022/07/17 03:51:45;;;;;;;4.03;3.75;;;;;;;23.00;64.45;98490.97;4984725;28;20191;-70
2022/07/17 03:54:10;;;;;;;4.78;3.80;;;;;;;22.96;65.32;98481.78;4997934;28;20210;-70
2022/07/17 03:56:36;;;;;;;6.22;5.00;;;;;;;22.89;65.91;98483.53;5000588;28;20252;-70
2022/07/17 03:59:01;;;;;;;4.35;3.92;;;;;;;22.80;66.16;98484.59;4998627;28;20193;-70
2022/07/17 04:01:27;;;;;;;6.30;4.28;;;;;;;23.00;65.80;98481.25;5000054;28;20265;-70
2022/07/17 04:03:52;;;;;;;4.65;4.18;;;;;;;23.06;65.99;98490.25;5000171;28;20186;-70
2022/07/17 04:06:17;;;;;;;4.30;3.83;;;;;;;23.05;65.74;98467.50;4999042;28;20186;-70
2022/07/17 04:08:43;;;;;;;4.80;4.50;;;;;;;23.09;66.02;98487.25;5001372;28;20664;-70
2022/07/17 04:11:09;;;;;;;4.57;4.00;;;;;;;23.21;65.97;98493.75;5012925;28;20681;-70
2022/07/17 04:13:34;;;;;;;4.35;3.95;;;;;;;23.30;65.56;98496.13;4998553;28;20217;-69
2022/07/17 04:16:00;;;;;;;4.15;3.95;;;;;;;23.46;65.34;98508.31;4998876;28;20272;-70
2022/07/17 04:18:31;;;;;;;3.85;3.65;;;;;;;23.61;65.46;98517.84;5001098;28;20201;-70
2022/07/17 04:20:59;;;;;;;4.30;3.28;;;;;;;23.81;64.73;98519.72;5006114;28;20195;-69
2022/07/17 04:23:26;;;;;;;5.00;3.55;;;;;;;23.99;64.06;98514.09;5001632;28;20285;-70
2022/07/17 04:25:52;;;;;;;3.58;3.38;;;;;;;23.95;64.05;98515.44;4998892;28;20795;-70
2022/07/17 04:28:18;;;;;;;4.60;4.30;;;;;;;23.90;63.28;98517.03;4992637;28;20219;-69
2022/07/17 04:30:43;;;;;;;5.13;3.40;;;;;;;23.95;62.96;98523.38;4996244;28;20240;-70
2022/07/17 04:33:08;;;;;;;4.22;3.92;;;;;;;23.84;63.57;98523.84;4993820;28;20473;-70
2022/07/17 04:35:34;;;;;;;3.78;3.58;;;;;;;23.92;63.52;98527.22;4977604;28;20276;-69
2022/07/17 04:38:01;;;;;;;4.22;3.90;;;;;;;23.98;63.35;98523.03;4978331;28;20652;-69
2022/07/17 04:40:26;;;;;;;4.07;3.78;;;;;;;24.13;63.08;98530.91;4996381;28;20222;-70
2022/07/17 04:42:52;;;;;;;4.10;3.80;;;;;;;24.18;63.04;98532.81;4996246;28;20241;-70
2022/07/17 04:45:18;;;;;;;4.20;3.90;;;;;;;24.20;62.87;98536.06;5000839;28;20194;-70
2022/07/17 04:47:44;;;;;;;4.05;3.75;;;;;;;24.17;62.42;98531.19;5001039;28;20217;-71
2022/07/17 04:50:10;;;;;;;6.20;4.18;;;;;;;24.28;62.20;98532.50;4999732;28;20222;-70
2022/07/17 04:52:36;;;;;;;3.72;3.53;;;;;;;24.35;62.55;98538.66;5001350;28;20218;-71
2022/07/17 04:55:02;;;;;;;4.70;4.18;;;;;;;24.43;61.96;98543.84;4981662;28;20542;-71
2022/07/17 04:57:28;;;;;;;4.28;3.88;;;;;;;24.61;61.41;98549.56;4978112;28;20187;-70
2022/07/17 04:59:54;;;;;;;3.97;3.75;;;;;;;24.67;60.86;98548.78;4981001;28;20293;-70
2022/07/17 05:02:19;;;;;;;4.05;3.85;;;;;;;24.67;60.95;98557.53;5003750;28;20671;-71
2022/07/17 05:04:46;;;;;;;4.00;3.60;;;;;;;24.73;60.59;98548.84;5000707;28;20214;-69
2022/07/17 05:07:12;;;;;;;4.25;3.88;;;;;;;24.87;60.43;98550.59;4995000;28;20218;-70
2022/07/17 05:09:37;;;;;;;3.70;3.40;;;;;;;24.89;60.36;98556.50;5004918;28;20269;-70
2022/07/17 05:12:03;;;;;;;4.30;3.90;;;;;;;24.83;60.87;98557.28;5006545;28;20676;-70
2022/07/17 05:14:28;;;;;;;4.15;3.80;;;;;;;24.76;61.41;98553.75;4999027;28;20187;-70
2022/07/17 05:16:54;;;;;;;4.32;3.75;;;;;;;24.52;61.96;98551.47;4978226;28;20187;-70
2022/07/17 05:19:19;;;;;;;4.18;3.78;;;;;;;24.37;63.09;98549.91;4978289;28;20193;-70
2022/07/17 05:21:45;;;;;;;4.13;3.75;;;;;;;24.41;62.96;98554.63;5001060;28;20202;-70
2022/07/17 05:24:10;;;;;;;4.20;3.88;;;;;;;24.39;63.41;98559.25;4990934;28;20202;-70
2022/07/17 05:26:36;;;;;;;4.50;4.10;;;;;;;24.37;63.70;98561.28;4998720;28;20782;-70
2022/07/17 05:29:01;;;;;;;4.53;3.95;;;;;;;24.28;64.26;98559.78;4999120;28;20643;-70
2022/07/17 05:31:27;;;;;;;3.90;3.55;;;;;;;24.39;64.07;98567.19;4993393;28;20191;-70
2022/07/17 05:33:52;;;;;;;4.30;3.90;;;;;;;24.38;64.23;98559.47;4997518;28;20593;-70
2022/07/17 05:36:18;;;;;;;4.38;3.70;;;;;;;24.37;64.28;98556.00;5002445;28;20189;-69
2022/07/17 05:38:43;;;;;;;4.18;3.83;;;;;;;24.60;63.77;98561.97;4995018;28;20186;-70
2022/07/17 05:41:09;;;;;;;4.38;3.70;;;;;;;24.66;63.39;98569.13;4997794;28;20193;-71
2022/07/17 05:43:34;;;;;;;3.35;3.15;;;;;;;24.78;61.99;98577.41;5000680;28;20285;-70
2022/07/17 05:46:00;;;;;;;4.00;3.70;;;;;;;24.78;61.70;98569.47;4989876;28;20187;-70
2022/07/17 05:48:26;;;;;;;5.10;4.70;;;;;;;24.94;62.03;98574.47;5000355;28;20193;-70
2022/07/17 05:50:52;;;;;;;4.65;3.40;;;;;;;25.21;58.50;98584.25;5008638;28;20605;-70
2022/07/17 05:53:18;;;;;;;4.85;4.20;;;;;;;25.33;58.54;98580.94;5007391;28;20242;-70
2022/07/17 05:55:44;;;;;;;3.65;3.30;;;;;;;25.54;57.22;98588.78;5005682;28;20269;-70
2022/07/17 05:58:10;;;;;;;5.03;2.75;;;;;;;25.75;51.23;98567.50;4983266;28;20190;-70
2022/07/17 06:00:36;;;;;;;2.00;1.90;;;;;;;26.17;48.07;98604.44;4993516;28;20193;-70
2022/07/17 06:03:02;;;;;;;2.38;2.17;;;;;;;26.38;47.58;98612.28;4978513;28;20175;-70
2022/07/17 06:05:28;;;;;;;2.63;2.10;;;;;;;26.58;46.28;98605.19;4996049;28;20208;-70
2022/07/17 06:07:55;;;;;;;2.83;2.63;;;;;;;26.79;46.55;98609.53;5009384;28;20286;-70
2022/07/17 06:10:20;;;;;;;3.97;2.40;;;;;;;26.92;46.71;98609.53;4993782;28;20241;-70
2022/07/17 06:12:46;;;;;;;2.90;2.47;;;;;;;27.06;46.04;98604.03;5002232;28;20283;-70
2022/07/17 06:15:11;;;;;;;2.83;2.58;;;;;;;27.26;44.60;98602.22;4997814;28;20190;-70
2022/07/17 06:17:37;;;;;;;4.82;2.50;;;;;;;27.42;44.04;98607.13;4998068;28;20186;-70
2022/07/17 06:20:03;;;;;;;5.82;2.03;;;;;;;27.49;45.35;98594.63;4994726;28;20197;-71
2022/07/17 06:22:29;;;;;;;4.03;2.15;;;;;;;27.56;45.78;98598.09;4978984;28;20190;-70
2022/07/17 06:24:54;;;;;;;2.72;2.03;;;;;;;27.69;44.75;98606.03;4999656;28;20674;-70
2022/07/17 06:27:20;;;;;;;3.13;2.08;;;;;;;27.76;43.29;98609.50;4996646;28;20741;-70
2022/07/17 06:29:46;;;;;;;5.40;2.28;;;;;;;27.81;43.76;98616.91;5017243;28;20204;-70
2022/07/17 06:32:11;;;;;;;2.95;2.20;;;;;;;27.78;42.26;98596.84;4998752;28;20718;-70
2022/07/17 06:34:37;;;;;;;2.40;2.20;;;;;;;27.86;42.41;98601.94;5006355;28;20194;-70
2022/07/17 06:37:03;;;;;;;2.53;2.22;;;;;;;27.89;42.70;98596.19;5003478;28;20194;-70
2022/07/17 06:39:28;;;;;;;2.80;2.15;;;;;;;27.98;41.50;98602.09;4990562;28;20187;-70
2022/07/17 06:41:54;;;;;;;4.50;2.15;;;;;;;28.00;41.95;98611.53;4980938;28;20600;-70
2022/07/17 06:44:19;;;;;;;2.53;2.33;;;;;;;27.97;42.17;98595.13;4984825;28;20266;-70
2022/07/17 06:46:44;;;;;;;2.15;2.03;;;;;;;28.09;42.01;98607.56;5004208;28;20640;-70
2022/07/17 06:49:10;;;;;;;2.97;2.20;;;;;;;28.11;41.84;98613.50;5004965;28;20187;-70
2022/07/17 06:51:35;;;;;;;2.10;1.92;;;;;;;28.12;41.05;98609.84;4999311;28;20734;-70
2022/07/17 06:54:01;;;;;;;2.22;2.13;;;;;;;28.14;40.75;98626.41;5000113;28;20198;-70
2022/07/17 06:56:26;;;;;;;5.35;2.10;;;;;;;28.10;40.50;98622.50;5007093;28;20652;-70
2022/07/17 06:58:52;;;;;;;2.42;2.22;;;;;;;28.10;40.47;98619.84;5001875;28;20182;-70
2022/07/17 07:01:17;;;;;;;2.20;2.10;;;;;;;28.16;40.34;98615.53;4986825;28;20202;-70
2022/07/17 07:03:42;;;;;;;2.78;2.13;;;;;;;28.16;40.38;98619.00;4980269;28;20190;-70
2022/07/17 07:06:08;;;;;;;3.25;1.90;;;;;;;28.17;40.54;98623.28;4982976;28;20187;-70
2022/07/17 07:08:34;;;;;;;2.38;2.22;;;;;;;28.09;40.31;98599.59;5006012;28;20193;-70
2022/07/17 07:11:01;;;;;;;2.33;2.13;;;;;;;28.23;40.42;98625.13;5010620;28;20189;-70
2022/07/17 07:13:26;;;;;;;3.72;1.98;;;;;;;28.16;40.85;98600.38;4997618;28;20242;-70
2022/07/17 07:15:51;;;;;;;2.38;2.00;;;;;;;28.28;39.74;98635.16;5003102;28;20229;-70
2022/07/17 07:18:17;;;;;;;2.40;2.17;;;;;;;28.37;39.58;98632.06;4999039;28;20187;-70
2022/07/17 07:20:42;;;;;;;2.33;2.10;;;;;;;28.30;39.95;98609.97;4995267;28;20268;-70
2022/07/17 07:23:08;;;;;;;3.38;2.00;;;;;;;28.50;40.41;98634.66;4984045;28;20190;-70
2022/07/17 07:25:34;;;;;;;2.88;2.00;;;;;;;28.58;38.95;98637.06;4981326;28;20721;-71
2022/07/17 07:27:59;;;;;;;5.85;1.90;;;;;;;28.58;40.23;98610.41;4987280;28;20190;-69
2022/07/17 07:30:25;;;;;;;2.72;2.17;;;;;;;28.66;39.33;98628.84;4999611;28;20241;-69
2022/07/17 07:32:50;;;;;;;4.38;2.00;;;;;;;28.64;38.67;98627.41;4993811;28;20215;-70
2022/07/17 07:35:15;;;;;;;1.95;1.73;;;;;;;28.75;37.16;98627.53;4999946;28;20664;-70
2022/07/17 07:37:41;;;;;;;2.42;2.22;;;;;;;28.73;36.74;98626.94;5005041;28;20205;-70
2022/07/17 07:40:07;;;;;;;2.72;2.22;;;;;;;28.73;36.74;98629.59;5006507;28;20244;-69
2022/07/17 07:42:33;;;;;;;3.03;1.83;;;;;;;28.72;37.47;98638.63;5001666;28;20183;-69
2022/07/17 07:44:58;;;;;;;3.60;1.90;;;;;;;28.87;37.62;98636.47;4982074;28;20198;-69
2022/07/17 07:47:24;;;;;;;2.13;1.88;;;;;;;28.95;36.33;98649.59;4979314;28;20226;-70
2022/07/17 07:49:50;;;;;;;2.38;2.20;;;;;;;28.94;35.68;98642.59;4998265;28;20245;-69
2022/07/17 07:52:15;;;;;;;2.40;2.22;;;;;;;29.00;35.79;98654.25;5005202;28;20190;-70
2022/07/17 07:54:41;;;;;;;7.15;2.38;;;;;;;29.00;35.17;98655.09;5006998;28;20646;-69
2022/07/17 07:57:07;;;;;;;3.28;1.60;;;;;;;29.05;35.14;98663.25;5002992;28;20226;-69
2022/07/17 07:59:32;;;;;;;1.83;1.73;;;;;;;29.02;35.13;98663.66;5006424;28;20185;-70
2022/07/17 08:01:59;;;;;;;2.13;1.80;;;;;;;29.01;34.52;98651.38;4996884;28;20182;-70
2022/07/17 08:04:24;;;;;;;2.20;2.10;;;;;;;29.06;34.44;98662.22;4988808;28;20285;-70
2022/07/17 08:06:50;;;;;;;4.95;1.80;;;;;;;28.99;34.20;98666.78;4979412;28;20265;-70
2022/07/17 08:09:16;;;;;;;2.38;1.90;;;;;;;29.02;34.57;98661.00;5017310;28;20186;-70
2022/07/17 08:11:41;;;;;;;2.13;2.03;;;;;;;29.07;34.54;98673.69;5005989;28;20186;-70
2022/07/17 08:14:07;;;;;;;2.15;1.80;;;;;;;29.14;33.71;98661.94;4993512;28;20548;-70
2022/07/17 08:16:32;;;;;;;3.15;2.20;;;;;;;29.22;34.11;98671.53;5001491;28;20186;-70
2022/07/17 08:18:58;;;;;;;1.65;1.55;;;;;;;29.26;33.89;98673.53;4991966;28;20187;-70
2022/07/17 08:21:23;;;;;;;4.25;2.38;;;;;;;29.17;34.25;98650.88;4996006;28;20557;-71
2022/07/17 08:23:49;;;;;;;6.35;1.90;;;;;;;29.37;33.48;98672.00;5007467;28;20328;-70
2022/07/17 08:26:14;;;;;;;3.13;2.40;;;;;;;29.42;33.99;98675.66;4981613;28;20215;-71
2022/07/17 08:28:40;;;;;;;5.25;2.10;;;;;;;29.47;33.75;98670.50;5000006;28;20226;-71
2022/07/17 08:31:05;;;;;;;2.50;2.20;;;;;;;29.50;33.54;98670.06;4997183;28;20205;-71
2022/07/17 08:33:31;;;;;;;2.72;1.92;;;;;;;29.53;33.75;98676.84;4996999;28;20217;-70
2022/07/17 08:35:56;;;;;;;6.88;1.75;;;;;;;29.56;32.94;98673.75;4994803;28;20187;-70
2022/07/17 08:38:22;;;;;;;2.78;1.63;;;;;;;29.59;32.66;98668.78;5004296;28;20569;-71
2022/07/17 08:40:49;;;;;;;1.90;1.80;;;;;;;29.65;33.21;98662.56;5002326;28;20198;-71
2022/07/17 08:43:15;;;;;;;2.00;1.90;;;;;;;29.66;33.00;98680.19;5006200;28;20187;-71
2022/07/17 08:45:43;;;;;;;3.38;1.70;;;;;;;29.65;33.57;98667.91;4996271;28;20195;-69
2022/07/17 08:48:13;;;;;;;2.65;1.80;;;;;;;29.71;33.66;98667.03;4995467;28;20186;-70
2022/07/17 08:50:38;;;;;;;2.15;2.00;;;;;;;29.81;32.93;98662.00;5002354;28;20193;-70
2022/07/17 08:53:04;;;;;;;4.35;2.03;;;;;;;29.87;33.33;98666.47;5006807;28;20214;-71
2022/07/17 08:55:29;;;;;;;4.85;2.08;;;;;;;29.93;34.10;98665.56;5000158;28;20610;-71
2022/07/17 08:57:55;;;;;;;4.35;2.25;;;;;;;30.00;33.10;98671.66;4999324;28;20257;-72
2022/07/17 09:00:23;;;;;;;2.05;1.70;;;;;;;30.08;33.26;98679.34;5000835;28;20214;-71
2022/07/17 09:03:08;;;;;;;4.28;1.75;;;;;;;30.10;33.10;98672.00;5005974;28;20186;-71
2022/07/17 09:05:37;;;;;;;2.22;1.90;;;;;;;30.16;31.87;98664.94;5006131;28;20738;-71
2022/07/17 09:08:06;;;;;;;2.70;2.03;;;;;;;30.16;32.38;98670.28;4996470;28;20231;-70
2022/07/17 09:10:36;;;;;;;3.03;1.83;;;;;;;30.18;31.78;98669.03;4997587;28;20210;-70
2022/07/17 09:13:13;;;;;;;2.05;1.92;;;;;;;30.17;32.12;98661.22;5000783;28;20198;-69
2022/07/17 09:15:39;;;;;;;2.00;1.90;;;;;;;30.16;31.13;98660.44;4997602;28;20186;-70
2022/07/17 09:18:04;;;;;;;2.10;1.90;;;;;;;30.22;31.48;98664.88;5003561;28;20249;-71
2022/07/17 09:20:30;;;;;;;2.10;1.75;;;;;;;30.22;32.20;98645.34;5005827;28;20249;-71
2022/07/17 09:23:04;;;;;;;1.98;1.85;;;;;;;30.40;31.85;98654.16;4993857;28;20182;-70
2022/07/17 09:25:41;;;;;;;3.95;2.20;;;;;;;30.56;31.74;98664.25;5006754;28;20261;-71
2022/07/17 09:28:08;;;;;;;2.83;2.50;;;;;;;30.66;31.71;98661.06;4996912;28;20227;-70
2022/07/17 09:30:37;;;;;;;2.90;2.00;;;;;;;30.82;31.02;98663.91;4996393;28;20197;-70
2022/07/17 09:33:06;;;;;;;3.30;2.05;;;;;;;30.85;31.05;98663.44;5000248;28;20781;-70
2022/07/17 09:35:32;;;;;;;5.00;2.10;;;;;;;30.94;30.14;98670.09;5003743;28;20183;-71
2022/07/17 09:37:58;;;;;;;2.50;1.90;;;;;;;31.01;30.51;98656.66;5000896;28;20186;-71
2022/07/17 09:43:08;;;;;;;2.30;2.10;;;;;;;31.06;30.47;98654.91;4993617;28;20189;-72
2022/07/17 09:45:34;;;;;;;4.63;1.98;;;;;;;31.19;30.36;98662.75;5006449;28;20773;-71
2022/07/17 09:48:01;;;;;;;4.93;2.30;;;;;;;31.17;29.63;98659.47;5004536;28;20189;-71
2022/07/17 09:50:28;;;;;;;4.68;2.17;;;;;;;31.21;29.91;98666.03;4995342;28;20194;-71
2022/07/17 09:52:56;;;;;;;2.10;2.00;;;;;;;31.20;30.01;98659.03;4996872;28;20691;-71
2022/07/17 09:55:27;;;;;;;2.90;1.98;;;;;;;31.28;29.97;98658.69;4984422;28;20187;-71
2022/07/17 09:57:57;;;;;;;3.78;1.83;;;;;;;31.34;29.39;98655.09;5001825;28;20186;-71
2022/07/17 10:00:23;;;;;;;4.90;2.05;;;;;;;31.39;30.07;98655.22;4996553;28;20182;-70
2022/07/17 10:02:48;;;;;;;3.20;1.85;;;;;;;31.46;29.70;98663.94;4996042;28;20278;-71
2022/07/17 10:05:15;;;;;;;1.83;1.73;;;;;;;31.49;28.41;98652.78;5003799;28;20245;-70
2022/07/17 10:07:45;;;;;;;3.45;2.20;;;;;;;31.55;28.69;98646.53;4995554;28;20220;-71
2022/07/17 10:10:12;;;;;;;4.00;2.13;;;;;;;31.62;29.55;98663.28;4998777;28;20270;-70
2022/07/17 10:12:39;;;;;;;3.47;1.80;;;;;;;31.71;28.82;98667.22;4976379;28;20955;-70
2022/07/17 10:15:06;;;;;;;3.72;1.80;;;;;;;31.74;27.87;98656.09;5000334;28;20641;-70
2022/07/17 10:17:32;;;;;;;3.05;2.10;;;;;;;31.80;28.57;98651.66;5004180;28;20191;-69
2022/07/17 10:19:57;;;;;;;3.65;1.83;;;;;;;31.87;29.03;98645.13;4992423;28;20194;-69
2022/07/17 10:22:24;;;;;;;2.65;1.60;;;;;;;32.04;29.09;98643.34;5001825;28;20185;-69
2022/07/17 10:24:50;;;;;;;1.88;1.70;;;;;;;31.98;27.69;98657.69;4995661;28;20202;-69
2022/07/17 10:27:27;;;;;;;2.00;1.83;;;;;;;32.04;27.85;98646.03;4996923;28;20183;-70
2022/07/17 10:30:03;;;;;;;2.00;1.90;;;;;;;32.04;28.55;98645.22;4998255;28;20184;-70
2022/07/17 10:32:29;;;;;;;2.70;1.83;;;;;;;32.03;28.25;98631.03;4996847;28;20570;-69
2022/07/17 10:35:04;;;;;;;2.95;1.92;;;;;;;32.11;28.70;98641.34;4994784;28;20203;-69
2022/07/17 10:37:40;;;;;;;2.03;1.80;;;;;;;32.15;27.84;98647.88;4995022;28;20178;-69
2022/07/17 10:40:18;;;;;;;2.63;2.00;;;;;;;32.25;27.98;98632.06;5001837;28;20175;-69
2022/07/17 10:42:58;;;;;;;1.70;1.60;;;;;;;32.34;28.07;98635.97;4990732;28;20266;-70
2022/07/17 10:45:25;;;;;;;4.80;1.65;;;;;;;32.49;28.01;98632.78;5002395;28;20247;-69
2022/07/17 10:48:01;;;;;;;3.72;1.85;;;;;;;32.65;28.14;98623.97;4995593;28;20187;-70
2022/07/17 10:50:38;;;;;;;2.95;1.75;;;;;;;32.83;27.89;98618.44;5005211;28;20193;-69
2022/07/17 10:53:12;;;;;;;2.78;1.80;;;;;;;33.15;27.58;98627.56;4980921;28;20230;-69
2022/07/17 10:55:41;;;;;;;3.17;1.98;;;;;;;33.46;27.02;98635.88;4994800;28;20273;-70
2022/07/17 10:58:25;;;;;;;4.55;2.05;;;;;;;33.66;27.06;98636.19;4997555;28;20194;-69
2022/07/17 11:01:12;;;;;;;1.73;1.63;;;;;;;33.59;26.17;98638.25;4995732;28;20186;-69
2022/07/17 11:03:40;;;;;;;1.60;1.50;;;;;;;33.73;25.89;98627.94;4998791;28;20182;-70
2022/07/17 11:06:19;;;;;;;2.00;1.90;;;;;;;33.84;26.14;98621.69;4999269;28;20627;-69
2022/07/17 11:08:55;;;;;;;2.75;2.30;;;;;;;34.11;26.36;98612.66;5003051;28;20191;-70
2022/07/17 11:11:23;;;;;;;3.72;2.13;;;;;;;34.33;25.87;98613.47;5001731;28;20182;-69
2022/07/17 11:13:49;;;;;;;1.73;1.70;;;;;;;34.36;25.40;98612.97;4986218;28;20712;-70
2022/07/17 11:16:29;;;;;;;3.95;1.77;;;;;;;34.37;25.45;98606.53;4991678;28;20189;-70
2022/07/17 11:18:55;;;;;;;1.80;1.70;;;;;;;34.25;25.66;98605.00;4999441;28;20185;-70
2022/07/17 11:21:22;;;;;;;1.80;1.70;;;;;;;34.44;25.66;98606.34;4990373;28;20198;-70
2022/07/17 11:23:56;;;;;;;4.25;1.73;;;;;;;34.47;25.31;98601.28;5006292;28;20680;-69
2022/07/17 11:26:22;;;;;;;5.47;1.95;;;;;;;34.73;25.71;98605.84;5000847;28;20275;-69
2022/07/17 11:28:49;;;;;;;1.95;1.85;;;;;;;34.84;25.30;98609.47;4999655;28;20309;-71
2022/07/17 11:31:24;;;;;;;2.75;1.90;;;;;;;34.94;24.64;98618.44;5000055;28;20220;-70
2022/07/17 11:33:58;;;;;;;2.78;1.90;;;;;;;35.07;24.52;98615.34;4993760;28;20198;-71